Time;durP1;ratioP1;P1;durP2;ratioP2;P2;SDS_P1;SDS_P2;PMS_P1;PMS_P2;Temp;Humidity;BMP_temperature;BMP_pressure;BME280_temperature;BME280_humidity;BME280_pressure;Samples;Min_cycle;Max_cycle;Signal;HPM_P1;HPM_P2
2021/04/17 00:00:06;;;;;;;15.30;13.70;;;;;21.30;101470.00;;;;2070900;28;20223;-46
2021/04/17 00:01:06;;;;;;;14.90;13.40;;;;;21.30;101464.00;;;;2068564;28;20662;-46
2021/04/17 00:02:07;;;;;;;14.93;13.33;;;;;21.20;101461.00;;;;2072715;28;20221;-47
2021/04/17 00:03:08;;;;;;;16.05;14.20;;;;;21.30;101469.00;;;;2075202;28;20675;-46
2021/04/17 00:04:08;;;;;;;14.73;12.63;;;;;21.20;101460.00;;;;2077123;28;20211;-47
2021/04/17 00:05:10;;;;;;;15.90;14.30;;;;;21.20;101462.00;;;;2077449;28;20217;-46
2021/04/17 00:06:11;;;;;;;14.73;13.20;;;;;21.20;101465.00;;;;2076021;28;20221;-46
2021/04/17 00:07:12;;;;;;;13.77;12.33;;;;;21.20;101464.00;;;;2068539;28;21120;-47
2021/04/17 00:08:13;;;;;;;14.23;12.40;;;;;21.20;101465.00;;;;2068749;28;20280;-47
2021/04/17 00:09:15;;;;;;;15.00;13.40;;;;;21.20;101461.00;;;;2076440;28;20216;-46
2021/04/17 00:10:15;;;;;;;13.23;11.90;;;;;21.20;101470.00;;;;2067824;28;20219;-46
2021/04/17 00:11:15;;;;;;;13.83;12.47;;;;;21.20;101465.00;;;;2070755;28;20626;-46
2021/04/17 00:12:17;;;;;;;14.30;12.20;;;;;21.20;101468.00;;;;2076572;28;20203;-47
2021/04/17 00:13:17;;;;;;;13.20;11.82;;;;;21.20;101467.00;;;;2076807;28;20245;-47
2021/04/17 00:14:26;;;;;;;13.73;12.30;;;;;21.20;101465.00;;;;2068545;28;20732;-46
2021/04/17 00:15:26;;;;;;;13.82;11.77;;;;;21.20;101469.00;;;;2076816;28;20287;-46
2021/04/17 00:16:27;;;;;;;13.50;11.70;;;;;21.20;101467.00;;;;2075734;28;20579;-46
2021/04/17 00:17:29;;;;;;;12.53;11.33;;;;;21.20;101466.00;;;;2076712;28;20222;-47
2021/04/17 00:18:29;;;;;;;13.55;11.55;;;;;21.20;101462.00;;;;2076594;28;20226;-47
2021/04/17 00:19:29;;;;;;;12.83;11.10;;;;;21.20;101464.00;;;;2077074;28;20262;-47
2021/04/17 00:20:30;;;;;;;12.00;10.80;;;;;21.20;101452.00;;;;2077479;28;20304;-47
2021/04/17 00:21:30;;;;;;;12.60;11.40;;;;;21.20;101462.00;;;;2077333;28;20224;-47
2021/04/17 00:22:30;;;;;;;11.53;10.43;;;;;21.20;101464.00;;;;2076495;28;20718;-47
2021/04/17 00:23:32;;;;;;;12.80;11.47;;;;;21.20;101460.00;;;;2077221;28;20249;-47
2021/04/17 00:24:32;;;;;;;12.15;10.80;;;;;21.20;101461.00;;;;2077078;28;20298;-47
2021/04/17 00:25:33;;;;;;;12.30;11.00;;;;;21.10;101459.00;;;;2076537;28;20214;-47
2021/04/17 00:26:34;;;;;;;20.40;15.83;;;;;21.10;101461.00;;;;2077142;28;20665;-47
2021/04/17 00:27:34;;;;;;;16.05;12.73;;;;;21.00;101464.00;;;;2071576;28;20549;-46
2021/04/17 00:28:35;;;;;;;16.17;13.23;;;;;21.10;101462.00;;;;2071786;28;20225;-47
2021/04/17 00:29:35;;;;;;;15.40;12.47;;;;;21.10;101463.00;;;;2071380;28;20211;-46
2021/04/17 00:30:36;;;;;;;14.20;10.27;;;;;21.10;101464.00;;;;2070307;28;20220;-47
2021/04/17 00:31:37;;;;;;;11.27;9.97;;;;;21.10;101468.00;;;;2068258;28;20704;-47
2021/04/17 00:32:37;;;;;;;13.90;10.50;;;;;21.20;101459.00;;;;2068676;28;20220;-46
2021/04/17 00:33:37;;;;;;;11.70;9.80;;;;;21.20;101462.00;;;;2068791;28;20223;-46
2021/04/17 00:34:38;;;;;;;11.03;9.83;;;;;21.20;101459.00;;;;2069011;28;20290;-46
2021/04/17 00:35:38;;;;;;;11.23;9.93;;;;;21.20;101461.00;;;;2064521;28;20220;-46
2021/04/17 00:36:38;;;;;;;9.40;8.40;;;;;21.10;101463.00;;;;2069181;28;20587;-46
2021/04/17 00:37:39;;;;;;;10.33;9.33;;;;;21.10;101465.00;;;;2067862;28;20721;-46
2021/04/17 00:38:39;;;;;;;10.00;8.97;;;;;21.10;101455.00;;;;2068361;28;20248;-46
2021/04/17 00:39:39;;;;;;;9.87;8.87;;;;;21.10;101454.00;;;;2073364;28;20212;-46
2021/04/17 00:40:40;;;;;;;9.60;8.60;;;;;21.20;101449.00;;;;2076651;28;20986;-46
2021/04/17 00:41:40;;;;;;;8.80;7.90;;;;;21.20;101451.00;;;;2077235;28;20221;-47
2021/04/17 00:42:40;;;;;;;9.47;8.57;;;;;21.20;101454.00;;;;2077019;28;20222;-47
2021/04/17 00:43:41;;;;;;;9.00;8.10;;;;;21.20;101454.00;;;;2077202;28;20220;-46
2021/04/17 00:44:41;;;;;;;8.10;7.30;;;;;21.20;101448.00;;;;2073615;28;20222;-46
2021/04/17 00:45:42;;;;;;;9.33;8.40;;;;;21.20;101459.00;;;;2071931;28;20218;-47
2021/04/17 00:46:42;;;;;;;8.60;7.80;;;;;21.10;101455.00;;;;2076242;28;20305;-49
2021/04/17 00:47:42;;;;;;;9.60;7.77;;;;;21.10;101405.00;;;;2074574;28;21124;-47
2021/04/17 00:48:43;;;;;;;8.30;7.40;;;;;21.10;101456.00;;;;2076750;28;20274;-47
2021/04/17 00:49:43;;;;;;;9.27;8.07;;;;;21.10;101456.00;;;;2070916;28;20220;-47
2021/04/17 00:50:43;;;;;;;8.57;7.70;;;;;21.10;101450.00;;;;2069132;28;20211;-47
2021/04/17 00:51:44;;;;;;;8.03;7.23;;;;;21.20;101457.00;;;;2076502;28;20218;-47
2021/04/17 00:52:44;;;;;;;8.30;7.50;;;;;21.10;101458.00;;;;2064842;28;20239;-46
2021/04/17 00:53:45;;;;;;;8.47;7.40;;;;;21.10;101462.00;;;;2068400;28;20231;-47
2021/04/17 00:54:45;;;;;;;8.47;7.60;;;;;21.10;101455.00;;;;2075853;28;20223;-46
2021/04/17 00:55:45;;;;;;;9.13;7.70;;;;;21.10;101456.00;;;;2076031;28;20206;-47
2021/04/17 00:56:46;;;;;;;8.70;7.80;;;;;21.10;101452.00;;;;2077159;28;20346;-46
2021/04/17 00:57:46;;;;;;;8.23;7.43;;;;;21.10;101451.00;;;;2075283;28;20276;-46
2021/04/17 00:58:46;;;;;;;8.27;6.40;;;;;21.10;101459.00;;;;2073489;28;20226;-45
2021/04/17 00:59:47;;;;;;;7.80;7.00;;;;;21.10;101452.00;;;;2070659;28;20587;-47
2021/04/17 01:00:47;;;;;;;8.00;7.20;;;;;21.20;101452.00;;;;2069161;28;21132;-46
2021/04/17 01:01:48;;;;;;;7.47;6.77;;;;;21.10;101452.00;;;;2068031;28;20215;-46
2021/04/17 01:02:55;;;;;;;7.60;6.90;;;;;21.10;101446.00;;;;2066522;28;20307;-47
2021/04/17 01:04:17;;;;;;;7.15;6.45;;;;;21.10;101449.00;;;;2060342;28;20721;-46
2021/04/17 01:05:18;;;;;;;7.75;6.95;;;;;21.10;101440.00;;;;2060479;28;20215;-46
2021/04/17 01:06:28;;;;;;;7.43;6.73;;;;;21.10;101446.00;;;;2052670;28;20220;-46
2021/04/17 01:07:34;;;;;;;6.72;6.07;;;;;21.10;101448.00;;;;2063195;28;20224;-46
2021/04/17 01:08:38;;;;;;;7.78;7.00;;;;;21.10;101449.00;;;;2069062;28;20273;-46
2021/04/17 01:10:07;;;;;;;7.78;7.07;;;;;21.10;101447.00;;;;2066080;28;20214;-46
2021/04/17 01:11:09;;;;;;;7.82;7.05;;;;;21.10;101450.00;;;;2076567;28;20250;-47
2021/04/17 01:12:12;;;;;;;7.22;6.50;;;;;21.10;101450.00;;;;2071082;28;20271;-46
2021/04/17 01:13:13;;;;;;;6.68;6.07;;;;;21.10;101443.00;;;;2073013;28;20227;-46
2021/04/17 01:14:16;;;;;;;6.73;6.00;;;;;21.10;101446.00;;;;2076420;28;20211;-47
2021/04/17 01:15:17;;;;;;;7.00;5.85;;;;;21.10;101448.00;;;;2068829;28;20222;-46
2021/04/17 01:16:17;;;;;;;6.73;5.77;;;;;21.10;101446.00;;;;2075187;28;20719;-47
2021/04/17 01:17:18;;;;;;;7.27;5.63;;;;;21.10;101449.00;;;;2074968;28;20221;-46
2021/04/17 01:18:19;;;;;;;6.43;5.67;;;;;21.10;101458.00;;;;2073695;28;20357;-47
2021/04/17 01:19:49;;;;;;;7.03;6.07;;;;;21.10;101449.00;;;;2076422;28;20214;-45
2021/04/17 01:20:52;;;;;;;6.68;5.97;;;;;21.10;101448.00;;;;2074430;28;20306;-48
2021/04/17 01:21:52;;;;;;;6.18;5.25;;;;;21.10;101448.00;;;;2073312;28;20214;-46
2021/04/17 01:23:05;;;;;;;6.57;5.47;;;;;21.00;101453.00;;;;2068883;28;20281;-46
2021/04/17 01:24:13;;;;;;;6.00;5.32;;;;;21.00;101442.00;;;;2071318;28;20245;-45
2021/04/17 01:25:15;;;;;;;7.15;5.88;;;;;21.00;101443.00;;;;2077747;28;20264;-46
2021/04/17 01:26:17;;;;;;;6.22;5.63;;;;;21.00;101442.00;;;;2068649;28;20283;-47
2021/04/17 01:27:17;;;;;;;6.32;5.50;;;;;21.00;101446.00;;;;2074831;28;20225;-46
2021/04/17 01:28:18;;;;;;;5.60;5.03;;;;;21.00;101444.00;;;;2071596;28;20253;-46
2021/04/17 01:29:19;;;;;;;5.43;4.80;;;;;21.00;101454.00;;;;2075883;28;20252;-47
2021/04/17 01:30:20;;;;;;;5.60;5.10;;;;;21.00;101444.00;;;;2068548;28;20302;-46
2021/04/17 01:31:23;;;;;;;5.43;4.90;;;;;21.00;101452.00;;;;2069557;28;20826;-47
2021/04/17 01:32:23;;;;;;;5.35;4.82;;;;;21.00;101447.00;;;;2068511;28;20233;-46
2021/04/17 01:33:28;;;;;;;5.00;4.33;;;;;21.00;101443.00;;;;2061772;28;20754;-46
2021/04/17 01:34:28;;;;;;;5.40;4.90;;;;;21.00;101454.00;;;;2062417;28;20632;-47
2021/04/17 01:35:28;;;;;;;5.90;5.30;;;;;21.00;101447.00;;;;2061641;28;20223;-46
2021/04/17 01:36:29;;;;;;;6.13;4.77;;;;;21.00;101447.00;;;;2051908;28;20705;-46
2021/04/17 01:37:58;;;;;;;5.70;5.20;;;;;21.00;101444.00;;;;2067340;28;20293;-47
2021/04/17 01:39:05;;;;;;;5.65;5.10;;;;;21.00;101447.00;;;;2069774;28;20583;-46
2021/04/17 01:40:06;;;;;;;5.20;4.70;;;;;21.00;101446.00;;;;2073253;28;20231;-47
2021/04/17 01:41:09;;;;;;;5.60;5.10;;;;;21.00;101446.00;;;;2072425;28;20237;-46
2021/04/17 01:42:10;;;;;;;5.38;4.88;;;;;21.00;101447.00;;;;2069159;28;20210;-47
2021/04/17 01:43:11;;;;;;;4.50;4.10;;;;;21.00;101449.00;;;;2069714;28;20298;-45
2021/04/17 01:44:14;;;;;;;4.67;4.17;;;;;21.00;101444.00;;;;2070126;28;20222;-46
2021/04/17 01:45:16;;;;;;;4.45;4.05;;;;;21.00;101440.00;;;;2065071;28;20215;-46
2021/04/17 01:46:20;;;;;;;5.88;4.85;;;;;21.00;101445.00;;;;2056882;28;20601;-46
2021/04/17 01:47:21;;;;;;;5.03;4.50;;;;;21.00;101447.00;;;;2051501;28;20212;-47
2021/04/17 01:48:21;;;;;;;5.40;4.53;;;;;20.80;101445.00;;;;2069932;28;20221;-47
2021/04/17 01:49:22;;;;;;;4.77;4.30;;;;;21.00;101443.00;;;;2061496;28;20219;-46
2021/04/17 01:50:26;;;;;;;4.50;4.10;;;;;21.00;101445.00;;;;2061195;28;20235;-47
2021/04/17 01:51:26;;;;;;;4.50;4.10;;;;;21.00;101445.00;;;;2068096;28;20273;-46
2021/04/17 01:52:27;;;;;;;4.37;4.00;;;;;21.00;101436.00;;;;2069573;28;20785;-47
2021/04/17 01:53:29;;;;;;;4.30;3.93;;;;;21.00;101445.00;;;;2061682;28;20290;-46
2021/04/17 01:54:32;;;;;;;4.70;4.25;;;;;21.00;101437.00;;;;2065682;28;20218;-45
2021/04/17 01:55:33;;;;;;;4.70;4.30;;;;;21.00;101443.00;;;;2069587;28;20782;-46
2021/04/17 01:56:33;;;;;;;4.22;3.83;;;;;20.90;101444.00;;;;2063018;28;20228;-47
2021/04/17 01:57:33;;;;;;;4.97;4.47;;;;;21.00;101443.00;;;;2060091;28;20267;-46
2021/04/17 01:58:36;;;;;;;4.27;3.87;;;;;20.90;101439.00;;;;2061840;28;20227;-46
2021/04/17 01:59:36;;;;;;;4.20;3.90;;;;;20.90;101434.00;;;;2069237;28;20215;-46
2021/04/17 02:00:36;;;;;;;4.27;3.80;;;;;21.00;101390.00;;;;2072538;28;20222;-46
2021/04/17 02:01:37;;;;;;;5.17;3.90;;;;;20.90;101440.00;;;;2075111;28;20373;-47
2021/04/17 02:02:37;;;;;;;4.60;4.20;;;;;20.90;101433.00;;;;2069175;28;20286;-47
2021/04/17 02:03:37;;;;;;;4.40;4.00;;;;;20.90;101433.00;;;;2077676;28;20785;-46
2021/04/17 02:04:38;;;;;;;4.80;4.30;;;;;20.90;101431.00;;;;2077446;28;20503;-46
2021/04/17 02:05:38;;;;;;;4.10;3.70;;;;;20.90;101434.00;;;;2076491;28;20210;-47
2021/04/17 02:06:38;;;;;;;4.40;4.03;;;;;20.90;101437.00;;;;2077653;28;20213;-46
2021/04/17 02:07:39;;;;;;;5.40;4.53;;;;;20.90;101439.00;;;;2076891;28;20206;-47
2021/04/17 02:08:39;;;;;;;4.00;3.60;;;;;20.90;101432.00;;;;2069961;28;20210;-47
2021/04/17 02:09:40;;;;;;;3.93;3.57;;;;;20.90;101436.00;;;;2070241;28;20751;-46
2021/04/17 02:10:40;;;;;;;4.07;3.67;;;;;20.90;101439.00;;;;2069805;28;20222;-46
2021/04/17 02:11:40;;;;;;;3.80;3.50;;;;;20.90;101438.00;;;;2066477;28;20595;-46
2021/04/17 02:12:41;;;;;;;4.43;4.03;;;;;20.90;101435.00;;;;2070011;28;20292;-46
2021/04/17 02:13:41;;;;;;;3.83;3.43;;;;;20.90;101435.00;;;;2062216;28;20237;-47
2021/04/17 02:14:41;;;;;;;4.00;3.70;;;;;20.90;101426.00;;;;2048518;28;20221;-46
2021/04/17 02:15:42;;;;;;;4.40;4.00;;;;;20.90;101431.00;;;;2060713;28;20223;-47
2021/04/17 02:17:03;;;;;;;3.63;3.33;;;;;20.90;101437.00;;;;2065205;28;20223;-46
2021/04/17 02:18:27;;;;;;;3.38;3.08;;;;;20.90;101437.00;;;;2061829;28;20630;-46
2021/04/17 02:19:57;;;;;;;4.10;3.80;;;;;20.90;101433.00;;;;2072737;28;20245;-48
2021/04/17 02:21:05;;;;;;;4.82;3.75;;;;;20.90;101432.00;;;;2072565;28;20706;-47
2021/04/17 02:22:05;;;;;;;4.03;3.63;;;;;20.90;101426.00;;;;2077613;28;20816;-46
2021/04/17 02:23:06;;;;;;;4.17;3.30;;;;;20.90;101428.00;;;;2077407;28;20228;-46
2021/04/17 02:24:06;;;;;;;3.83;3.50;;;;;20.90;101429.00;;;;2069191;28;20210;-46
2021/04/17 02:25:07;;;;;;;5.20;3.47;;;;;20.90;101428.00;;;;2068889;28;20286;-46
2021/04/17 02:26:08;;;;;;;4.40;4.00;;;;;20.80;101428.00;;;;2067987;28;20206;-47
2021/04/17 02:27:08;;;;;;;4.23;3.83;;;;;20.90;101415.00;;;;2069527;28;20457;-47
2021/04/17 02:28:09;;;;;;;3.60;3.30;;;;;20.80;101422.00;;;;2065804;28;20222;-46
2021/04/17 02:29:09;;;;;;;4.60;3.33;;;;;20.80;101427.00;;;;2077172;28;20742;-46
2021/04/17 02:30:10;;;;;;;3.63;3.30;;;;;20.80;101421.00;;;;2077107;28;20202;-46
2021/04/17 02:31:10;;;;;;;4.67;3.23;;;;;20.90;101421.00;;;;2074339;28;20261;-47
2021/04/17 02:32:14;;;;;;;3.37;3.07;;;;;20.80;101421.00;;;;2069142;28;20284;-46
2021/04/17 02:33:14;;;;;;;3.47;3.17;;;;;20.90;101424.00;;;;2068455;28;20307;-46
2021/04/17 02:34:15;;;;;;;3.80;3.30;;;;;20.90;101430.00;;;;2077968;28;20597;-46
2021/04/17 02:35:16;;;;;;;3.80;3.50;;;;;20.80;101419.00;;;;2068854;28;20633;-47
2021/04/17 02:36:16;;;;;;;3.80;3.23;;;;;20.80;101424.00;;;;2067833;28;20235;-47
2021/04/17 02:37:16;;;;;;;3.50;3.20;;;;;20.80;101423.00;;;;2077996;28;20354;-46
2021/04/17 02:38:17;;;;;;;3.90;3.10;;;;;20.80;101432.00;;;;2078084;28;20233;-47
2021/04/17 02:39:17;;;;;;;3.43;3.07;;;;;20.80;101425.00;;;;2075025;28;20225;-46
2021/04/17 02:40:17;;;;;;;3.43;3.13;;;;;20.80;101431.00;;;;2065146;28;20215;-46
2021/04/17 02:41:18;;;;;;;3.27;2.97;;;;;20.80;101427.00;;;;2068883;28;20715;-47
2021/04/17 02:42:18;;;;;;;3.53;3.23;;;;;20.80;101419.00;;;;2069345;28;20214;-46
2021/04/17 02:43:19;;;;;;;3.13;2.83;;;;;20.80;101414.00;;;;2069727;28;20649;-46
2021/04/17 02:44:19;;;;;;;3.50;3.20;;;;;20.80;101428.00;;;;2072821;28;20214;-47
2021/04/17 02:45:19;;;;;;;3.53;3.23;;;;;20.80;101421.00;;;;2072438;28;20219;-46
2021/04/17 02:46:20;;;;;;;4.00;3.10;;;;;20.80;101422.00;;;;2070394;28;20285;-46
2021/04/17 02:47:20;;;;;;;3.50;3.20;;;;;20.80;101429.00;;;;2069685;28;20309;-47
2021/04/17 02:48:20;;;;;;;3.33;3.03;;;;;20.80;101418.00;;;;2069687;28;20661;-47
2021/04/17 02:49:21;;;;;;;3.20;2.90;;;;;20.80;101432.00;;;;2069666;28;20222;-47
2021/04/17 02:50:21;;;;;;;3.20;2.90;;;;;20.80;101427.00;;;;2070077;28;20215;-46
2021/04/17 02:51:21;;;;;;;3.30;3.00;;;;;20.80;101430.00;;;;2069248;28;20219;-46
2021/04/17 02:52:22;;;;;;;3.07;2.80;;;;;20.80;101432.00;;;;2069767;28;20219;-46
2021/04/17 02:53:22;;;;;;;4.37;3.50;;;;;20.80;101431.00;;;;2069726;28;20264;-47
2021/04/17 02:54:22;;;;;;;2.83;2.50;;;;;20.80;101428.00;;;;2069590;28;20234;-47
2021/04/17 02:55:23;;;;;;;3.53;2.90;;;;;20.80;101439.00;;;;2069795;28;20227;-47
2021/04/17 02:56:23;;;;;;;3.37;3.07;;;;;20.80;101432.00;;;;2067923;28;20576;-46
2021/04/17 02:57:23;;;;;;;3.10;2.80;;;;;20.80;101439.00;;;;2069465;28;20223;-47
2021/04/17 02:58:24;;;;;;;3.30;3.10;;;;;20.80;101427.00;;;;2069917;28;20578;-47
2021/04/17 02:59:24;;;;;;;3.40;3.10;;;;;20.80;101432.00;;;;2069818;28;20218;-47
2021/04/17 03:00:25;;;;;;;3.23;2.97;;;;;20.70;101435.00;;;;2069704;28;20210;-46
2021/04/17 03:01:25;;;;;;;3.07;2.77;;;;;20.80;101433.00;;;;2064555;28;20219;-47
2021/04/17 03:02:25;;;;;;;4.10;2.93;;;;;20.80;101422.00;;;;2069001;28;20790;-46
2021/04/17 03:03:26;;;;;;;2.70;2.50;;;;;20.80;101429.00;;;;2069666;28;20818;-46
2021/04/17 03:04:27;;;;;;;3.77;3.40;;;;;20.80;101430.00;;;;2069691;28;20299;-45
2021/04/17 03:05:27;;;;;;;3.30;3.00;;;;;20.70;101435.00;;;;2069344;28;20587;-47
2021/04/17 03:06:27;;;;;;;4.27;2.70;;;;;20.70;101429.00;;;;2068048;28;20454;-47
2021/04/17 03:07:28;;;;;;;2.63;2.43;;;;;20.80;101429.00;;;;2070382;28;20215;-46
2021/04/17 03:08:28;;;;;;;3.10;2.73;;;;;20.70;101431.00;;;;2069645;28;20218;-46
2021/04/17 03:09:28;;;;;;;3.27;2.97;;;;;20.80;101438.00;;;;2068645;28;20219;-46
2021/04/17 03:10:29;;;;;;;2.70;2.50;;;;;20.70;101426.00;;;;2069275;28;20223;-46
2021/04/17 03:11:29;;;;;;;2.90;2.70;;;;;20.70;101427.00;;;;2069222;28;20358;-46
2021/04/17 03:12:30;;;;;;;3.13;2.83;;;;;20.70;101428.00;;;;2069711;28;20210;-46
2021/04/17 03:13:30;;;;;;;3.20;2.90;;;;;20.70;101427.00;;;;2069613;28;20254;-46
2021/04/17 03:14:30;;;;;;;3.03;2.80;;;;;20.70;101433.00;;;;2071586;28;20222;-46
2021/04/17 03:15:31;;;;;;;3.40;3.13;;;;;20.70;101426.00;;;;2069188;28;20939;-47
2021/04/17 03:16:31;;;;;;;4.50;3.17;;;;;20.70;101427.00;;;;2069698;28;20304;-47
2021/04/17 03:17:32;;;;;;;3.10;2.80;;;;;20.70;101425.00;;;;2069422;28;20218;-47
2021/04/17 03:18:32;;;;;;;3.30;3.00;;;;;20.70;101429.00;;;;2069887;28;20215;-46
2021/04/17 03:19:32;;;;;;;3.20;2.87;;;;;20.70;101427.00;;;;2069478;28;20223;-47
2021/04/17 03:20:33;;;;;;;2.70;2.50;;;;;20.70;101429.00;;;;2069459;28;20631;-46
2021/04/17 03:21:33;;;;;;;3.10;2.80;;;;;20.70;101427.00;;;;2068683;28;20245;-47
2021/04/17 03:22:34;;;;;;;3.23;2.77;;;;;20.70;101431.00;;;;2070675;28;20703;-46
2021/04/17 03:23:34;;;;;;;3.17;2.87;;;;;20.70;101423.00;;;;2077235;28;20819;-47
2021/04/17 03:24:35;;;;;;;3.73;2.93;;;;;20.70;101429.00;;;;2077207;28;20218;-52
2021/04/17 03:25:35;;;;;;;3.03;2.73;;;;;20.70;101425.00;;;;2075959;28;20360;-47
2021/04/17 03:26:36;;;;;;;3.03;2.83;;;;;20.70;101421.00;;;;2077541;28;20452;-47
2021/04/17 03:27:37;;;;;;;2.67;2.47;;;;;20.70;101427.00;;;;2077335;28;20214;-47
2021/04/17 03:28:37;;;;;;;3.40;2.50;;;;;20.70;101426.00;;;;2077041;28;20214;-46
2021/04/17 03:29:37;;;;;;;3.30;2.73;;;;;20.70;101422.00;;;;2077213;28;20292;-47
2021/04/17 03:30:38;;;;;;;3.20;2.90;;;;;20.70;101421.00;;;;2077856;28;20217;-47
2021/04/17 03:31:38;;;;;;;2.73;2.53;;;;;20.70;101423.00;;;;2075761;28;20226;-47
2021/04/17 03:32:38;;;;;;;3.03;2.70;;;;;20.70;101385.00;;;;2077551;28;20297;-46
2021/04/17 03:33:39;;;;;;;4.37;2.70;;;;;20.60;101427.00;;;;2077482;28;20214;-47
2021/04/17 03:34:39;;;;;;;3.00;2.60;;;;;20.70;101425.00;;;;2077062;28;20221;-46
2021/04/17 03:35:39;;;;;;;3.43;3.13;;;;;20.60;101429.00;;;;2076498;28;20983;-46
2021/04/17 03:36:40;;;;;;;3.00;2.43;;;;;20.70;101429.00;;;;2077740;28;20214;-46
2021/04/17 03:37:40;;;;;;;2.87;2.67;;;;;20.70;101428.00;;;;2076832;28;20226;-46
2021/04/17 03:38:41;;;;;;;3.30;2.63;;;;;20.60;101430.00;;;;2069036;28;20245;-47
2021/04/17 03:39:41;;;;;;;3.37;2.60;;;;;20.60;101432.00;;;;2068873;28;20293;-46
2021/04/17 03:40:41;;;;;;;2.83;2.37;;;;;20.60;101434.00;;;;2069358;28;20206;-46
2021/04/17 03:41:42;;;;;;;3.07;2.70;;;;;20.70;101422.00;;;;2068532;28;20218;-47
2021/04/17 03:42:42;;;;;;;4.03;2.77;;;;;20.70;101430.00;;;;2069348;28;20218;-47
2021/04/17 03:43:43;;;;;;;3.27;2.47;;;;;20.60;101428.00;;;;2069813;28;20215;-46
2021/04/17 03:44:43;;;;;;;3.27;2.97;;;;;20.60;101432.00;;;;2071158;28;20250;-47
2021/04/17 03:45:43;;;;;;;2.43;2.23;;;;;20.60;101424.00;;;;2068605;28;20214;-47
2021/04/17 03:46:44;;;;;;;2.57;2.33;;;;;20.60;101428.00;;;;2068699;28;20210;-47
2021/04/17 03:47:44;;;;;;;2.60;2.33;;;;;20.60;101427.00;;;;2069033;28;20302;-46
2021/04/17 03:48:45;;;;;;;2.40;2.20;;;;;20.60;101432.00;;;;2066767;28;20217;-46
2021/04/17 03:49:45;;;;;;;2.90;2.63;;;;;20.60;101429.00;;;;2069343;28;20225;-46
2021/04/17 03:50:45;;;;;;;2.90;2.60;;;;;20.60;101425.00;;;;2069018;28;20203;-46
2021/04/17 03:51:46;;;;;;;2.43;2.23;;;;;20.60;101427.00;;;;2068373;28;20249;-46
2021/04/17 03:52:47;;;;;;;2.60;2.40;;;;;20.60;101431.00;;;;2069552;28;20217;-46
2021/04/17 03:53:47;;;;;;;2.77;2.57;;;;;20.60;101434.00;;;;2069194;28;20507;-46
2021/04/17 03:54:47;;;;;;;3.43;2.97;;;;;20.60;101433.00;;;;2069079;28;20210;-46
2021/04/17 03:55:48;;;;;;;2.50;2.30;;;;;20.60;101430.00;;;;2067316;28;20215;-47
2021/04/17 03:56:48;;;;;;;3.33;2.70;;;;;20.60;101436.00;;;;2069647;28;20236;-47
2021/04/17 03:57:48;;;;;;;2.67;2.30;;;;;20.60;101437.00;;;;2069025;28;20207;-46
2021/04/17 03:58:49;;;;;;;3.10;2.70;;;;;20.60;101438.00;;;;2069353;28;20301;-47
2021/04/17 03:59:49;;;;;;;2.60;2.30;;;;;20.60;101439.00;;;;2066054;28;20699;-46
2021/04/17 04:00:49;;;;;;;2.60;2.40;;;;;20.60;101432.00;;;;2069045;28;20269;-46
2021/04/17 04:01:50;;;;;;;2.47;2.27;;;;;20.60;101440.00;;;;2068776;28;20353;-46
2021/04/17 04:02:50;;;;;;;2.90;2.53;;;;;20.60;101433.00;;;;2069214;28;20210;-46
2021/04/17 04:03:51;;;;;;;3.10;2.40;;;;;20.60;101423.00;;;;2069102;28;20225;-47
2021/04/17 04:04:51;;;;;;;2.63;2.27;;;;;20.60;101436.00;;;;2069148;28;20218;-46
2021/04/17 04:05:51;;;;;;;2.57;2.37;;;;;20.60;101438.00;;;;2062945;28;20298;-46
2021/04/17 04:06:52;;;;;;;2.30;2.10;;;;;20.60;101431.00;;;;2069632;28;20211;-47
2021/04/17 04:07:52;;;;;;;2.87;2.60;;;;;20.60;101455.00;;;;2072243;28;20206;-46
2021/04/17 04:08:52;;;;;;;2.43;2.20;;;;;20.60;101438.00;;;;2064529;28;20797;-46
2021/04/17 04:09:53;;;;;;;2.80;2.60;;;;;20.60;101432.00;;;;2065556;28;20699;-47
2021/04/17 04:10:53;;;;;;;2.30;2.10;;;;;20.60;101437.00;;;;2069247;28;20234;-46
2021/04/17 04:11:54;;;;;;;3.03;2.40;;;;;20.50;101439.00;;;;2067045;28;20226;-45
2021/04/17 04:12:54;;;;;;;2.87;2.47;;;;;20.60;101435.00;;;;2069227;28;20292;-46
2021/04/17 04:13:55;;;;;;;2.90;2.10;;;;;20.60;101440.00;;;;2070114;28;20218;-46
2021/04/17 04:14:55;;;;;;;2.60;2.40;;;;;20.60;101440.00;;;;2069124;28;20241;-46
2021/04/17 04:15:56;;;;;;;2.53;2.33;;;;;20.60;101440.00;;;;2067680;28;20218;-46
2021/04/17 04:16:56;;;;;;;2.30;2.10;;;;;20.60;101447.00;;;;2069303;28;20210;-46
2021/04/17 04:17:56;;;;;;;3.00;2.80;;;;;20.50;101446.00;;;;2068201;28;20305;-47
2021/04/17 04:18:57;;;;;;;2.50;2.30;;;;;20.60;101445.00;;;;2069067;28;20219;-47
2021/04/17 04:19:57;;;;;;;3.43;2.53;;;;;20.50;101444.00;;;;2069152;28;20922;-46
2021/04/17 04:20:58;;;;;;;2.33;2.13;;;;;20.50;101446.00;;;;2069159;28;20955;-46
2021/04/17 04:21:58;;;;;;;2.67;2.10;;;;;20.50;101448.00;;;;2069384;28;20218;-46
2021/04/17 04:23:00;;;;;;;2.53;2.33;;;;;20.50;101448.00;;;;2068965;28;20215;-46
2021/04/17 04:24:00;;;;;;;2.55;2.35;;;;;20.50;101445.00;;;;2069006;28;20316;-46
2021/04/17 04:25:01;;;;;;;2.53;2.07;;;;;20.50;101453.00;;;;2068842;28;20563;-47
2021/04/17 04:26:02;;;;;;;2.63;2.03;;;;;20.50;101443.00;;;;2067270;28;20250;-46
2021/04/17 04:27:03;;;;;;;2.40;2.13;;;;;20.50;101447.00;;;;2069123;28;20200;-46
2021/04/17 04:28:03;;;;;;;3.30;2.43;;;;;20.50;101444.00;;;;2069382;28;20214;-47
2021/04/17 04:29:04;;;;;;;2.67;2.47;;;;;20.50;101447.00;;;;2069155;28;20224;-46
2021/04/17 04:30:08;;;;;;;2.70;2.40;;;;;20.50;101449.00;;;;2068774;28;20214;-46
2021/04/17 04:31:09;;;;;;;3.08;2.45;;;;;20.50;101449.00;;;;2073084;28;20214;-47
2021/04/17 04:32:09;;;;;;;3.27;2.97;;;;;20.50;101443.00;;;;2072079;28;20214;-46
2021/04/17 04:33:09;;;;;;;2.77;2.53;;;;;20.50;101447.00;;;;2077373;28;20285;-47
2021/04/17 04:34:10;;;;;;;4.03;2.40;;;;;20.50;101445.00;;;;2077227;28;20785;-46
2021/04/17 04:35:11;;;;;;;2.33;2.13;;;;;20.50;101455.00;;;;2077094;28;20631;-46
2021/04/17 04:36:11;;;;;;;2.33;2.13;;;;;20.50;101453.00;;;;2075357;28;20218;-46
2021/04/17 04:37:11;;;;;;;2.60;2.40;;;;;20.50;101450.00;;;;2076458;28;20210;-47
2021/04/17 04:38:12;;;;;;;2.57;2.37;;;;;20.50;101454.00;;;;2076271;28;20815;-47
2021/04/17 04:39:12;;;;;;;2.27;2.07;;;;;20.50;101459.00;;;;2077449;28;20237;-46
2021/04/17 04:40:13;;;;;;;2.80;2.37;;;;;20.50;101453.00;;;;2075735;28;20221;-45
2021/04/17 04:41:13;;;;;;;2.80;2.55;;;;;20.50;101452.00;;;;2076917;28;20225;-47
2021/04/17 04:42:14;;;;;;;2.63;2.43;;;;;20.50;101455.00;;;;2072923;28;20237;-47
2021/04/17 04:43:14;;;;;;;3.30;2.30;;;;;20.50;101463.00;;;;2077176;28;20578;-46
2021/04/17 04:44:14;;;;;;;3.63;2.10;;;;;20.50;101461.00;;;;2068712;28;20226;-46
2021/04/17 04:45:15;;;;;;;4.63;2.57;;;;;20.50;101456.00;;;;2074268;28;20721;-45
2021/04/17 04:46:15;;;;;;;2.50;2.30;;;;;20.50;101456.00;;;;2070936;28;20264;-46
2021/04/17 04:47:16;;;;;;;2.50;2.30;;;;;20.50;101456.00;;;;2070878;28;20218;-47
2021/04/17 04:48:16;;;;;;;2.73;2.53;;;;;20.50;101452.00;;;;2068990;28;20744;-46
2021/04/17 04:49:16;;;;;;;2.60;2.27;;;;;20.50;101455.00;;;;2069069;28;20218;-46
2021/04/17 04:50:17;;;;;;;2.50;2.30;;;;;20.50;101462.00;;;;2069303;28;20214;-46
2021/04/17 04:51:17;;;;;;;3.70;2.20;;;;;20.50;101476.00;;;;2069084;28;20219;-46
2021/04/17 04:52:17;;;;;;;2.20;2.00;;;;;20.50;101463.00;;;;2068608;28;20214;-46
2021/04/17 04:53:19;;;;;;;2.30;2.10;;;;;20.50;101460.00;;;;2071644;28;20874;-47
2021/04/17 04:54:19;;;;;;;3.08;2.45;;;;;20.50;101460.00;;;;2071326;28;20985;-46
2021/04/17 04:55:20;;;;;;;2.80;2.57;;;;;20.50;101457.00;;;;2070799;28;20223;-46
2021/04/17 04:56:20;;;;;;;2.30;2.00;;;;;20.50;101456.00;;;;2068190;28;20684;-47
2021/04/17 04:57:21;;;;;;;2.50;2.23;;;;;20.40;101463.00;;;;2070671;28;20226;-46
2021/04/17 04:58:21;;;;;;;2.77;2.40;;;;;20.40;101456.00;;;;2070506;28;20458;-46
2021/04/17 04:59:21;;;;;;;2.93;2.73;;;;;20.40;101452.00;;;;2070345;28;20619;-49
2021/04/17 05:00:23;;;;;;;2.63;2.43;;;;;20.50;101457.00;;;;2066532;28;20591;-46
2021/04/17 05:01:23;;;;;;;2.63;2.42;;;;;20.40;101459.00;;;;2069450;28;20293;-46
2021/04/17 05:02:23;;;;;;;3.17;2.87;;;;;20.50;101459.00;;;;2069282;28;20657;-46